Time;durP1;ratioP1;P1;durP2;ratioP2;P2;SDS_P1;SDS_P2;PMS_P1;PMS_P2;Temp;Humidity;BMP_temperature;BMP_pressure;BME280_temperature;BME280_humidity;BME280_pressure;Samples;Min_cycle;Max_cycle;Signal;HPM_P1;HPM_P2
2022/01/12 00:00:53;;;;;;;;;;;25.70;99.90;;;;;;5073363;28;20279;-76
2022/01/12 00:03:19;;;;;;;;;;;25.60;99.90;;;;;;5073105;28;19931;-76
2022/01/12 00:05:46;;;;;;;;;;;25.50;99.90;;;;;;5072959;28;19916;-72
2022/01/12 00:08:13;;;;;;;;;;;25.50;99.90;;;;;;5073047;28;19909;-77
2022/01/12 00:10:41;;;;;;;;;;;25.70;99.90;;;;;;5072936;28;19927;-77
2022/01/12 00:13:07;;;;;;;;;;;26.00;99.90;;;;;;5072910;28;20053;-77
2022/01/12 00:15:34;;;;;;;;;;;26.00;99.90;;;;;;5073004;28;19908;-75
2022/01/12 00:18:01;;;;;;;;;;;25.80;99.90;;;;;;5072738;28;19909;-75
2022/01/12 00:20:27;;;;;;;;;;;25.90;99.90;;;;;;5072536;28;20422;-73
2022/01/12 00:22:54;;;;;;;;;;;26.20;99.90;;;;;;5072821;28;20323;-75
2022/01/12 00:33:20;;;;;;;;;;;26.50;99.90;;;;;;5072990;28;19930;-76
2022/01/12 00:35:50;;;;;;;;;;;26.50;99.90;;;;;;5104272;28;20014;-75
2022/01/12 00:38:18;;;;;;;;;;;26.60;99.90;;;;;;5072643;28;19934;-75
2022/01/12 00:40:53;;;;;;;;;;;26.60;99.90;;;;;;5072520;28;20045;-76
2022/01/12 00:43:21;;;;;;;;;;;26.60;99.90;;;;;;5072461;28;19909;-75
2022/01/12 00:45:48;;;;;;;;;;;26.80;99.90;;;;;;5072074;28;19916;-75
2022/01/12 00:48:16;;;;;;;;;;;26.90;99.90;;;;;;5072434;28;20355;-75
2022/01/12 00:50:43;;;;;;;;;;;27.20;99.90;;;;;;5072336;28;19915;-76
2022/01/12 00:53:10;;;;;;;;;;;27.40;99.90;;;;;;5072188;28;19909;-74
2022/01/12 00:55:37;;;;;;;;;;;27.60;99.90;;;;;;5072223;28;20366;-76
2022/01/12 00:58:04;;;;;;;;;;;27.90;99.90;;;;;;5072270;28;19959;-77
2022/01/12 01:00:32;;;;;;;;;;;28.10;99.90;;;;;;5072197;28;20275;-76
2022/01/12 01:02:58;;;;;;;;;;;28.20;99.90;;;;;;5072177;28;19908;-76
2022/01/12 01:05:27;;;;;;;;;;;28.10;99.90;;;;;;5072167;28;20013;-76
2022/01/12 01:07:54;;;;;;;;;;;28.30;99.90;;;;;;5071823;28;20351;-76
2022/01/12 01:10:45;;;;;;;;;;;28.40;99.90;;;;;;5072022;28;19974;-77
2022/01/12 01:13:13;;;;;;;;;;;28.30;99.90;;;;;;5071792;28;19909;-75
2022/01/12 01:26:30;;;;;;;;;;;28.50;99.90;;;;;;5072049;28;19919;-76
2022/01/12 01:28:57;;;;;;;;;;;28.20;99.90;;;;;;5071727;28;19995;-77
2022/01/12 01:31:32;;;;;;;;;;;28.10;99.90;;;;;;5072042;28;19915;-76
2022/01/12 01:34:06;;;;;;;;;;;28.10;99.90;;;;;;5074471;28;20355;-76
2022/01/12 01:36:36;;;;;;;;;;;28.10;99.90;;;;;;5075835;28;19936;-76
2022/01/12 01:39:05;;;;;;;;;;;28.40;99.90;;;;;;5075720;28;19908;-76
2022/01/12 01:41:31;;;;;;;;;;;28.50;99.90;;;;;;5075804;28;19909;-77
2022/01/12 01:44:32;;;;;;;;;;;28.50;99.90;;;;;;5075245;28;19962;-76
2022/01/12 01:55:08;;;;;;;;;;;29.20;99.90;;;;;;5075826;28;19941;-77
2022/01/12 01:57:35;;;;;;;;;;;29.30;99.90;;;;;;5075301;28;19912;-78
2022/01/12 02:00:05;;;;;;;;;;;29.10;99.90;;;;;;5074954;28;19912;-77
2022/01/12 02:02:31;;;;;;;;;;;29.20;99.90;;;;;;5075269;28;19990;-77
2022/01/12 02:04:58;;;;;;;;;;;28.70;99.90;;;;;;5075077;28;19924;-76
2022/01/12 02:07:25;;;;;;;;;;;28.40;99.90;;;;;;5075307;28;19984;-77
2022/01/12 02:09:51;;;;;;;;;;;28.20;99.90;;;;;;5074755;28;20306;-77
2022/01/12 02:12:28;;;;;;;;;;;28.10;99.90;;;;;;5074962;28;19908;-73
2022/01/12 02:14:55;;;;;;;;;;;27.90;99.90;;;;;;5075222;28;19942;-75
2022/01/12 02:17:27;;;;;;;;;;;27.90;99.90;;;;;;5075008;28;19915;-76
2022/01/12 02:20:29;;;;;;;;;;;27.60;99.90;;;;;;5074827;28;19908;-77
2022/01/12 02:36:34;;;;;;;;;;;27.50;99.90;;;;;;5074808;28;19990;-77
2022/01/12 02:41:45;;;;;;;;;;;27.10;99.90;;;;;;5074878;28;19920;-77
2022/01/12 02:54:44;;;;;;;;;;;27.20;99.90;;;;;;5074510;28;19969;-75
2022/01/12 02:57:10;;;;;;;;;;;27.10;99.90;;;;;;5074149;28;19947;-76
2022/01/12 02:59:40;;;;;;;;;;;26.90;99.90;;;;;;5074205;28;19919;-76
2022/01/12 03:02:25;;;;;;;;;;;26.90;99.90;;;;;;5072712;28;19916;-76
2022/01/12 03:05:35;;;;;;;;;;;26.90;99.90;;;;;;5074402;28;20007;-76
2022/01/12 03:07:41;;;;;;;;;;;26.80;99.90;;;;;;5071169;28;19915;-77
2022/01/12 03:10:10;;;;;;;;;;;26.80;99.90;;;;;;5073852;28;19920;-76
2022/01/12 03:12:40;;;;;;;;;;;26.80;99.90;;;;;;5073823;28;19919;-77
2022/01/12 03:15:07;;;;;;;;;;;26.70;99.90;;;;;;5074034;28;19912;-73
2022/01/12 03:17:34;;;;;;;;;;;26.60;99.90;;;;;;5074114;28;19999;-75
2022/01/12 03:20:01;;;;;;;;;;;26.60;99.90;;;;;;5073823;28;19931;-75
2022/01/12 03:22:28;;;;;;;;;;;26.70;99.90;;;;;;5073934;28;19909;-76
2022/01/12 03:24:55;;;;;;;;;;;26.70;99.90;;;;;;5073867;28;20411;-76
2022/01/12 03:27:24;;;;;;;;;;;26.70;99.90;;;;;;5073566;28;19933;-75
2022/01/12 03:29:55;;;;;;;;;;;26.70;99.90;;;;;;5073439;28;19917;-76
2022/01/12 03:32:30;;;;;;;;;;;26.60;99.90;;;;;;5073487;28;20094;-76
2022/01/12 03:35:05;;;;;;;;;;;26.40;99.90;;;;;;5073819;28;19919;-76
2022/01/12 03:37:53;;;;;;;;;;;26.30;99.90;;;;;;5073628;28;19999;-76
2022/01/12 03:40:20;;;;;;;;;;;26.10;99.90;;;;;;5073479;28;20363;-76
2022/01/12 03:42:46;;;;;;;;;;;25.80;99.90;;;;;;5073337;28;20395;-72
2022/01/12 03:45:14;;;;;;;;;;;25.70;99.90;;;;;;5073321;28;20351;-75
2022/01/12 03:47:41;;;;;;;;;;;25.70;99.90;;;;;;5073213;28;20002;-72
2022/01/12 03:50:08;;;;;;;;;;;25.70;99.90;;;;;;5073095;28;19908;-73
2022/01/12 03:52:34;;;;;;;;;;;25.80;99.90;;;;;;5073397;28;19912;-75
2022/01/12 03:55:01;;;;;;;;;;;25.80;99.90;;;;;;5073219;28;20415;-73
2022/01/12 03:57:28;;;;;;;;;;;25.90;99.90;;;;;;5072748;28;20416;-73
2022/01/12 03:59:54;;;;;;;;;;;25.80;99.90;;;;;;5072961;28;19966;-75
2022/01/12 04:02:22;;;;;;;;;;;25.70;99.90;;;;;;5073034;28;19915;-73
2022/01/12 04:10:26;;;;;;;;;;;25.60;99.90;;;;;;5072898;28;19963;-75
2022/01/12 04:12:52;;;;;;;;;;;25.50;99.90;;;;;;5072796;28;19915;-75
2022/01/12 04:15:19;;;;;;;;;;;25.50;99.90;;;;;;5072863;28;20008;-72
2022/01/12 04:17:46;;;;;;;;;;;25.50;99.90;;;;;;5072810;28;19962;-72
2022/01/12 04:20:12;;;;;;;;;;;25.50;99.90;;;;;;5072805;28;19978;-74
2022/01/12 04:25:25;;;;;;;;;;;25.50;99.90;;;;;;5072772;28;19923;-76
2022/01/12 04:27:52;;;;;;;;;;;25.50;99.90;;;;;;5072379;28;19909;-76
2022/01/12 04:30:19;;;;;;;;;;;25.40;99.90;;;;;;5072642;28;19908;-74
2022/01/12 04:32:45;;;;;;;;;;;25.30;99.90;;;;;;5072710;28;20347;-74
2022/01/12 04:35:14;;;;;;;;;;;25.20;99.90;;;;;;5072739;28;20003;-73
2022/01/12 04:37:41;;;;;;;;;;;25.20;99.90;;;;;;5072790;28;19913;-73
2022/01/12 04:40:08;;;;;;;;;;;25.20;99.90;;;;;;5072275;28;19940;-73
2022/01/12 04:42:36;;;;;;;;;;;25.10;99.90;;;;;;5072359;28;19913;-73
2022/01/12 04:45:19;;;;;;;;;;;25.20;99.90;;;;;;5072546;28;20351;-74
2022/01/12 04:50:22;;;;;;;;;;;25.10;99.90;;;;;;5072589;28;19999;-73
2022/01/12 04:52:49;;;;;;;;;;;25.00;99.90;;;;;;5072434;28;19916;-75
2022/01/12 04:55:16;;;;;;;;;;;25.00;99.90;;;;;;5072523;28;20321;-75
2022/01/12 04:57:42;;;;;;;;;;;25.00;99.90;;;;;;5072308;28;19909;-74
2022/01/12 05:00:16;;;;;;;;;;;25.00;99.90;;;;;;5072159;28;20274;-76
2022/01/12 05:13:27;;;;;;;;;;;24.80;99.90;;;;;;5076568;28;19974;-74
2022/01/12 05:15:55;;;;;;;;;;;24.70;99.90;;;;;;5076050;28;19909;-76
2022/01/12 05:18:21;;;;;;;;;;;24.60;99.90;;;;;;5076454;28;19954;-73
2022/01/12 05:20:48;;;;;;;;;;;24.40;99.90;;;;;;5076479;28;20278;-76
2022/01/12 05:23:15;;;;;;;;;;;24.20;99.90;;;;;;5076164;28;19938;-76
2022/01/12 05:25:42;;;;;;;;;;;24.00;99.90;;;;;;5076282;28;20007;-77
2022/01/12 05:28:08;;;;;;;;;;;23.80;99.90;;;;;;5075715;28;19908;-74
2022/01/12 05:30:35;;;;;;;;;;;23.70;99.90;;;;;;5076036;28;19965;-75
2022/01/12 05:33:02;;;;;;;;;;;23.70;99.90;;;;;;5075963;28;19908;-75
2022/01/12 05:35:32;;;;;;;;;;;23.70;99.90;;;;;;5075759;28;19942;-74
2022/01/12 05:38:04;;;;;;;;;;;23.70;99.90;;;;;;5075794;28;19909;-75
2022/01/12 05:40:31;;;;;;;;;;;23.70;99.90;;;;;;5075666;28;19908;-73
2022/01/12 05:43:01;;;;;;;;;;;23.70;99.90;;;;;;5075667;28;20356;-75
2022/01/12 05:45:30;;;;;;;;;;;23.60;99.90;;;;;;5075681;28;19924;-75
2022/01/12 05:50:24;;;;;;;;;;;23.80;99.90;;;;;;5075696;28;19909;-73
2022/01/12 05:52:51;;;;;;;;;;;23.80;99.90;;;;;;5072805;28;19908;-76
2022/01/12 05:55:17;;;;;;;;;;;23.70;99.90;;;;;;5073387;28;19958;-76
2022/01/12 05:57:44;;;;;;;;;;;23.40;99.90;;;;;;5073193;28;20283;-75
2022/01/12 06:00:15;;;;;;;;;;;23.20;99.90;;;;;;5073060;28;19912;-77
2022/01/12 06:02:42;;;;;;;;;;;22.80;99.90;;;;;;5073393;28;19908;-77
2022/01/12 06:05:08;;;;;;;;;;;22.60;99.90;;;;;;5072771;28;20065;-77
2022/01/12 06:07:36;;;;;;;;;;;22.40;99.90;;;;;;5073188;28;19919;-76
2022/01/12 06:10:03;;;;;;;;;;;22.30;99.90;;;;;;5072839;28;19916;-76
2022/01/12 06:12:29;;;;;;;;;;;22.20;99.90;;;;;;5073213;28;19920;-78
2022/01/12 06:14:56;;;;;;;;;;;22.10;99.90;;;;;;5073272;28;19919;-79
2022/01/12 06:17:23;;;;;;;;;;;22.00;99.90;;;;;;5072911;28;19931;-79
2022/01/12 06:19:49;;;;;;;;;;;21.90;99.90;;;;;;5072404;28;19985;-79
2022/01/12 06:22:16;;;;;;;;;;;21.80;99.90;;;;;;5072972;28;19916;-79
2022/01/12 06:24:43;;;;;;;;;;;21.70;99.90;;;;;;5072937;28;19939;-80
2022/01/12 06:27:14;;;;;;;;;;;21.50;99.90;;;;;;5072837;28;19909;-81
2022/01/12 06:29:44;;;;;;;;;;;21.40;99.90;;;;;;5073037;28;19962;-81
2022/01/12 06:32:10;;;;;;;;;;;21.30;99.90;;;;;;5075094;28;19939;-79
2022/01/12 06:34:37;;;;;;;;;;;21.00;99.90;;;;;;5076819;28;20286;-76
2022/01/12 06:37:04;;;;;;;;;;;21.00;99.90;;;;;;5074939;28;19915;-79
2022/01/12 06:39:31;;;;;;;;;;;20.90;99.90;;;;;;5075099;28;19954;-80
2022/01/12 06:41:58;;;;;;;;;;;20.80;99.90;;;;;;5072531;28;20427;-81
2022/01/12 06:44:25;;;;;;;;;;;20.80;99.90;;;;;;5071017;28;19964;-82
2022/01/12 06:46:53;;;;;;;;;;;20.90;99.90;;;;;;5072994;28;19909;-82
2022/01/12 06:49:20;;;;;;;;;;;20.90;99.90;;;;;;5074035;28;20555;-81
2022/01/12 06:51:47;;;;;;;;;;;20.70;99.90;;;;;;5073233;28;19919;-77
2022/01/12 06:54:14;;;;;;;;;;;20.70;99.90;;;;;;5074536;28;20381;-83
2022/01/12 06:56:41;;;;;;;;;;;20.60;99.90;;;;;;5073674;28;20404;-82
2022/01/12 06:59:08;;;;;;;;;;;20.60;99.90;;;;;;5076001;28;19912;-78
2022/01/12 07:01:35;;;;;;;;;;;20.60;99.90;;;;;;5076365;28;20586;-80
2022/01/12 07:04:02;;;;;;;;;;;20.50;99.90;;;;;;5073527;28;19912;-77
2022/01/12 07:06:28;;;;;;;;;;;20.40;99.90;;;;;;5072187;28;19908;-77
2022/01/12 07:08:55;;;;;;;;;;;20.30;99.90;;;;;;5104395;28;19915;-80
2022/01/12 07:11:22;;;;;;;;;;;20.40;99.90;;;;;;5071707;28;19916;-77
2022/01/12 07:13:49;;;;;;;;;;;20.40;99.90;;;;;;5072374;28;19915;-80
2022/01/12 07:16:15;;;;;;;;;;;20.40;99.90;;;;;;5072791;28;19936;-80
2022/01/12 07:18:42;;;;;;;;;;;20.40;99.90;;;;;;5072468;28;19920;-82
2022/01/12 07:21:08;;;;;;;;;;;20.60;99.90;;;;;;5072872;28;19912;-79
2022/01/12 07:23:35;;;;;;;;;;;20.60;99.90;;;;;;5071692;28;19917;-81
2022/01/12 07:26:02;;;;;;;;;;;20.60;99.90;;;;;;5072159;28;19912;-83
2022/01/12 07:28:28;;;;;;;;;;;20.70;99.90;;;;;;5071867;28;20035;-83
2022/01/12 07:30:55;;;;;;;;;;;20.80;99.90;;;;;;5070807;28;20262;-81
2022/01/12 07:33:22;;;;;;;;;;;20.80;99.90;;;;;;5072476;28;20264;-81
2022/01/12 07:35:49;;;;;;;;;;;20.90;99.90;;;;;;5072317;28;19908;-79
2022/01/12 07:38:15;;;;;;;;;;;20.90;99.90;;;;;;5073958;28;19912;-81
2022/01/12 07:40:42;;;;;;;;;;;21.00;99.90;;;;;;5073670;28;19913;-82
2022/01/12 07:43:09;;;;;;;;;;;21.00;99.90;;;;;;5073286;28;20754;-82
2022/01/12 07:45:36;;;;;;;;;;;21.10;99.90;;;;;;5104533;28;20598;-81
2022/01/12 07:48:03;;;;;;;;;;;21.00;99.90;;;;;;5071135;28;19912;-81
2022/01/12 07:50:30;;;;;;;;;;;21.10;99.90;;;;;;5070972;28;20002;-79
2022/01/12 07:52:57;;;;;;;;;;;21.10;99.90;;;;;;5071250;28;19966;-79
2022/01/12 07:55:29;;;;;;;;;;;21.10;99.90;;;;;;5071122;28;19908;-78
2022/01/12 07:58:05;;;;;;;;;;;21.10;99.90;;;;;;5104288;28;19915;-79
2022/01/12 08:00:31;;;;;;;;;;;21.10;99.90;;;;;;5071271;28;19909;-83
2022/01/12 08:02:58;;;;;;;;;;;21.10;99.90;;;;;;5070909;28;20438;-78
2022/01/12 08:05:25;;;;;;;;;;;21.10;99.90;;;;;;5072363;28;20016;-81
2022/01/12 08:07:54;;;;;;;;;;;21.10;99.90;;;;;;5071429;28;20249;-79
2022/01/12 08:10:21;;;;;;;;;;;21.10;99.90;;;;;;5072502;28;20371;-77
2022/01/12 08:12:48;;;;;;;;;;;21.10;99.90;;;;;;5072928;28;19909;-80
2022/01/12 08:15:15;;;;;;;;;;;21.10;99.90;;;;;;5073067;28;19908;-80
2022/01/12 08:17:41;;;;;;;;;;;21.10;99.90;;;;;;5071745;28;20549;-81
2022/01/12 08:20:11;;;;;;;;;;;21.00;99.90;;;;;;5073009;28;19908;-80
2022/01/12 08:22:39;;;;;;;;;;;21.10;99.90;;;;;;5072520;28;20259;-80
2022/01/12 08:25:08;;;;;;;;;;;21.20;99.90;;;;;;5072708;28;19916;-78
2022/01/12 08:27:36;;;;;;;;;;;21.20;99.90;;;;;;5087979;28;20279;-79
2022/01/12 08:30:03;;;;;;;;;;;21.20;99.90;;;;;;5072617;28;19912;-77
2022/01/12 08:32:30;;;;;;;;;;;21.30;99.90;;;;;;5072693;28;19955;-77
2022/01/12 08:34:58;;;;;;;;;;;21.30;99.90;;;;;;5072595;28;19912;-77
2022/01/12 08:37:24;;;;;;;;;;;21.20;99.90;;;;;;5072197;28;20010;-80
2022/01/12 08:39:52;;;;;;;;;;;21.20;99.90;;;;;;5072370;28;19992;-78
2022/01/12 08:42:19;;;;;;;;;;;21.20;99.90;;;;;;5072140;28;19908;-78
2022/01/12 08:44:45;;;;;;;;;;;21.10;99.90;;;;;;5072423;28;20363;-78
2022/01/12 08:47:12;;;;;;;;;;;21.10;99.90;;;;;;5072384;28;20061;-79
2022/01/12 08:49:39;;;;;;;;;;;21.20;99.90;;;;;;5072443;28;20255;-78
2022/01/12 08:52:06;;;;;;;;;;;21.20;99.90;;;;;;5071759;28;20024;-77
2022/01/12 08:54:32;;;;;;;;;;;21.30;99.90;;;;;;5072225;28;20271;-77
2022/01/12 08:56:59;;;;;;;;;;;21.30;99.90;;;;;;5072205;28;19908;-78
2022/01/12 08:59:26;;;;;;;;;;;21.30;99.90;;;;;;5072414;28;20045;-78
2022/01/12 09:01:53;;;;;;;;;;;21.30;99.90;;;;;;5072195;28;20386;-78
2022/01/12 09:04:20;;;;;;;;;;;21.30;99.90;;;;;;5072181;28;19924;-78
2022/01/12 09:06:47;;;;;;;;;;;21.30;99.90;;;;;;5072047;28;19916;-78
2022/01/12 09:09:13;;;;;;;;;;;21.30;99.90;;;;;;5071749;28;20452;-77
2022/01/12 09:11:40;;;;;;;;;;;21.30;99.90;;;;;;5072090;28;19964;-79
2022/01/12 09:14:06;;;;;;;;;;;21.30;99.90;;;;;;5071978;28;19999;-76
2022/01/12 09:16:34;;;;;;;;;;;21.40;99.90;;;;;;5072151;28;19909;-77
2022/01/12 09:19:00;;;;;;;;;;;21.30;99.90;;;;;;5072238;28;19909;-76
2022/01/12 09:21:28;;;;;;;;;;;21.30;99.90;;;;;;5072127;28;19935;-78
2022/01/12 09:23:55;;;;;;;;;;;21.40;99.90;;;;;;5071552;28;19912;-78
2022/01/12 09:26:21;;;;;;;;;;;21.30;99.90;;;;;;5070640;28;19915;-77
2022/01/12 09:28:49;;;;;;;;;;;21.30;99.90;;;;;;5072131;28;19919;-77
2022/01/12 09:31:15;;;;;;;;;;;21.30;99.90;;;;;;5072049;28;19916;-77
2022/01/12 09:33:42;;;;;;;;;;;21.30;99.90;;;;;;5071932;28;19975;-77
2022/01/12 09:36:09;;;;;;;;;;;21.30;99.90;;;;;;5071842;28;19915;-77
2022/01/12 09:38:35;;;;;;;;;;;21.30;99.90;;;;;;5071716;28;19916;-77
2022/01/12 09:41:04;;;;;;;;;;;21.20;99.90;;;;;;5071998;28;19909;-77
2022/01/12 09:43:34;;;;;;;;;;;21.30;99.90;;;;;;5072051;28;20037;-76
2022/01/12 09:46:00;;;;;;;;;;;21.30;99.90;;;;;;5071696;28;19916;-77
2022/01/12 09:48:33;;;;;;;;;;;21.30;99.90;;;;;;5071745;28;20194;-75
2022/01/12 09:51:02;;;;;;;;;;;21.20;99.90;;;;;;5071943;28;19973;-76
2022/01/12 09:53:29;;;;;;;;;;;21.20;99.90;;;;;;5071653;28;19916;-75
2022/01/12 09:55:56;;;;;;;;;;;21.20;99.90;;;;;;5075278;28;19908;-75
2022/01/12 09:58:22;;;;;;;;;;;21.20;99.90;;;;;;5075466;28;19948;-77
2022/01/12 10:00:59;;;;;;;;;;;21.10;99.90;;;;;;5075282;28;19971;-75
2022/01/12 10:03:27;;;;;;;;;;;21.00;99.90;;;;;;5075426;28;19909;-74
2022/01/12 10:05:54;;;;;;;;;;;21.00;99.90;;;;;;5075168;28;20444;-74
2022/01/12 10:08:21;;;;;;;;;;;21.10;99.90;;;;;;5075018;28;19909;-74
2022/01/12 10:11:06;;;;;;;;;;;21.20;99.90;;;;;;5075096;28;19927;-73
2022/01/12 10:13:33;;;;;;;;;;;21.30;99.90;;;;;;5075277;28;19966;-73
2022/01/12 10:16:10;;;;;;;;;;;21.40;99.90;;;;;;5074674;28;19912;-73
2022/01/12 10:18:50;;;;;;;;;;;21.50;99.90;;;;;;5075222;28;19916;-72
2022/01/12 10:21:26;;;;;;;;;;;21.40;99.90;;;;;;5075159;28;20091;-73
2022/01/12 10:23:57;;;;;;;;;;;21.50;99.90;;;;;;5074755;28;20000;-72
2022/01/12 10:26:31;;;;;;;;;;;21.50;99.90;;;;;;5074943;28;19912;-72
2022/01/12 10:29:05;;;;;;;;;;;21.50;99.90;;;;;;5074837;28;19909;-73
2022/01/12 10:31:42;;;;;;;;;;;21.50;99.90;;;;;;5074854;28;19908;-72
2022/01/12 10:34:08;;;;;;;;;;;21.40;99.90;;;;;;5074319;28;20377;-72
2022/01/12 10:36:39;;;;;;;;;;;21.40;99.90;;;;;;5074590;28;19940;-74
2022/01/12 10:39:09;;;;;;;;;;;21.50;99.90;;;;;;5074267;28;19909;-72
2022/01/12 10:41:36;;;;;;;;;;;21.50;99.90;;;;;;5074592;28;19916;-73
2022/01/12 10:44:03;;;;;;;;;;;21.40;99.90;;;;;;5074449;28;20333;-73
2022/01/12 10:46:30;;;;;;;;;;;21.30;99.90;;;;;;5074736;28;20367;-74
2022/01/12 10:48:58;;;;;;;;;;;21.30;99.90;;;;;;5074473;28;19920;-73
2022/01/12 10:51:29;;;;;;;;;;;21.20;99.90;;;;;;5074533;28;19918;-74
2022/01/12 10:54:00;;;;;;;;;;;21.10;99.90;;;;;;5073727;28;19916;-75
2022/01/12 10:56:27;;;;;;;;;;;21.20;99.90;;;;;;5074304;28;20354;-75
2022/01/12 10:58:54;;;;;;;;;;;21.00;99.90;;;;;;5074385;28;20282;-74
2022/01/12 11:01:23;;;;;;;;;;;21.00;99.90;;;;;;5074375;28;19951;-74
2022/01/12 11:03:50;;;;;;;;;;;21.10;99.90;;;;;;5074227;28;19920;-74
2022/01/12 11:06:17;;;;;;;;;;;21.10;99.90;;;;;;5074444;28;20311;-76
2022/01/12 11:08:47;;;;;;;;;;;21.10;99.90;;;;;;5073695;28;19944;-75
2022/01/12 11:11:15;;;;;;;;;;;21.10;99.90;;;;;;5073872;28;19920;-75
2022/01/12 11:13:42;;;;;;;;;;;21.00;99.90;;;;;;5074092;28;20516;-76
2022/01/12 11:16:09;;;;;;;;;;;21.00;99.90;;;;;;5073601;28;20009;-76
2022/01/12 11:18:36;;;;;;;;;;;21.00;99.90;;;;;;5074097;28;19908;-74
2022/01/12 11:21:21;;;;;;;;;;;20.90;99.90;;;;;;5074053;28;19954;-76
2022/01/12 11:23:50;;;;;;;;;;;21.00;99.90;;;;;;5072968;28;19930;-76
2022/01/12 11:26:16;;;;;;;;;;;20.90;99.90;;;;;;5073665;28;19919;-74
2022/01/12 11:28:44;;;;;;;;;;;21.00;99.90;;;;;;5073557;28;19915;-75
2022/01/12 11:31:12;;;;;;;;;;;20.90;99.90;;;;;;5073819;28;19954;-75
2022/01/12 11:33:40;;;;;;;;;;;20.90;99.90;;;;;;5073158;28;20270;-75
2022/01/12 11:36:18;;;;;;;;;;;20.90;99.90;;;;;;5073755;28;19962;-74
2022/01/12 11:38:47;;;;;;;;;;;20.90;99.90;;;;;;5073648;28;20355;-74
2022/01/12 11:41:24;;;;;;;;;;;20.80;99.90;;;;;;5073402;28;19967;-75
2022/01/12 11:43:53;;;;;;;;;;;20.80;99.90;;;;;;5072865;28;19912;-76
2022/01/12 11:46:20;;;;;;;;;;;20.80;99.90;;;;;;5073270;28;19916;-76
2022/01/12 11:48:48;;;;;;;;;;;20.70;99.90;;;;;;5073416;28;20004;-76
2022/01/12 11:51:15;;;;;;;;;;;20.80;99.90;;;;;;5073029;28;20030;-75
2022/01/12 11:53:46;;;;;;;;;;;20.70;99.90;;;;;;5073173;28;19908;-75
2022/01/12 11:56:18;;;;;;;;;;;20.60;99.90;;;;;;5073366;28;20003;-75
2022/01/12 11:59:06;;;;;;;;;;;20.60;99.90;;;;;;5073435;28;19961;-75
2022/01/12 12:01:41;;;;;;;;;;;20.80;99.90;;;;;;5073315;28;19999;-75
2022/01/12 12:04:09;;;;;;;;;;;20.70;99.90;;;;;;5072875;28;19916;-73
2022/01/12 12:06:35;;;;;;;;;;;20.70;99.90;;;;;;5073202;28;19916;-71
2022/01/12 12:09:07;;;;;;;;;;;20.70;99.90;;;;;;5071734;28;20287;-73
2022/01/12 12:11:34;;;;;;;;;;;20.50;99.90;;;;;;5072762;28;19946;-72
2022/01/12 12:14:06;;;;;;;;;;;20.30;99.90;;;;;;5072770;28;19970;-72
2022/01/12 12:16:34;;;;;;;;;;;20.10;99.90;;;;;;5072627;28;19915;-72
2022/01/12 12:19:02;;;;;;;;;;;20.10;99.90;;;;;;5072650;28;19916;-72
2022/01/12 12:21:29;;;;;;;;;;;20.00;99.90;;;;;;5073188;28;20274;-72
2022/01/12 12:24:06;;;;;;;;;;;19.80;99.90;;;;;;5072515;28;19909;-72
2022/01/12 12:26:33;;;;;;;;;;;19.60;99.90;;;;;;5072760;28;19912;-73
2022/01/12 12:28:59;;;;;;;;;;;19.50;99.90;;;;;;5072751;28;20271;-72
2022/01/12 12:31:26;;;;;;;;;;;19.40;99.90;;;;;;5072880;28;20000;-73
2022/01/12 12:34:00;;;;;;;;;;;19.30;99.90;;;;;;5072644;28;19909;-73
2022/01/12 12:36:26;;;;;;;;;;;19.30;99.90;;;;;;5072777;28;19908;-72
2022/01/12 12:38:53;;;;;;;;;;;19.30;99.90;;;;;;5072544;28;19913;-73
2022/01/12 12:41:20;;;;;;;;;;;19.40;99.90;;;;;;5072608;28;19915;-72
2022/01/12 12:43:48;;;;;;;;;;;19.50;99.90;;;;;;5072390;28;19915;-72
2022/01/12 12:46:15;;;;;;;;;;;19.50;99.90;;;;;;5072626;28;19955;-72
2022/01/12 12:48:42;;;;;;;;;;;19.40;99.90;;;;;;5072660;28;20313;-73
2022/01/12 12:51:12;;;;;;;;;;;19.30;99.90;;;;;;5072808;28;20365;-72
2022/01/12 12:53:40;;;;;;;;;;;19.20;99.90;;;;;;5072597;28;19995;-72
2022/01/12 12:56:12;;;;;;;;;;;19.10;99.90;;;;;;5072434;28;19927;-73
2022/01/12 12:58:39;;;;;;;;;;;19.30;99.90;;;;;;5072688;28;20014;-73
2022/01/12 13:01:10;;;;;;;;;;;19.40;99.90;;;;;;5072683;28;19908;-72
2022/01/12 13:03:39;;;;;;;;;;;19.50;99.90;;;;;;5072499;28;19947;-72
2022/01/12 13:06:06;;;;;;;;;;;19.60;99.90;;;;;;5072205;28;19927;-72
2022/01/12 13:08:33;;;;;;;;;;;19.70;99.90;;;;;;5072230;28;19913;-72
2022/01/12 13:11:06;;;;;;;;;;;19.80;99.90;;;;;;5072358;28;20003;-71
2022/01/12 13:13:33;;;;;;;;;;;19.80;99.90;;;;;;5072349;28;19962;-72
2022/01/12 13:16:00;;;;;;;;;;;19.80;99.90;;;;;;5078074;28;19916;-71
2022/01/12 13:18:26;;;;;;;;;;;19.70;99.90;;;;;;5072764;28;19915;-71
2022/01/12 13:21:10;;;;;;;;;;;19.70;99.90;;;;;;5072258;28;20355;-71
2022/01/12 13:23:37;;;;;;;;;;;19.70;99.90;;;;;;5072167;28;19919;-71
2022/01/12 13:26:07;;;;;;;;;;;19.80;99.90;;;;;;5072046;28;19920;-71
2022/01/12 13:28:35;;;;;;;;;;;19.90;99.90;;;;;;5072797;28;19915;-71
2022/01/12 13:31:03;;;;;;;;;;;19.80;99.90;;;;;;5076120;28;20327;-72
2022/01/12 13:33:31;;;;;;;;;;;19.90;99.90;;;;;;5075959;28;19927;-72
2022/01/12 13:35:59;;;;;;;;;;;19.90;99.90;;;;;;5075825;28;19913;-72
2022/01/12 13:38:32;;;;;;;;;;;19.90;99.90;;;;;;5075770;28;19909;-72
2022/01/12 13:41:12;;;;;;;;;;;19.90;99.90;;;;;;5075988;28;19943;-72
2022/01/12 13:43:41;;;;;;;;;;;20.00;99.90;;;;;;5076040;28;19909;-72
2022/01/12 13:46:16;;;;;;;;;;;20.00;99.90;;;;;;5075694;28;20316;-72
2022/01/12 13:49:38;;;;;;;;;;;19.90;99.90;;;;;;5075926;28;19909;-71
2022/01/12 13:51:40;;;;;;;;;;;19.90;99.90;;;;;;5064731;28;19909;-73
2022/01/12 13:54:14;;;;;;;;;;;19.90;99.90;;;;;;5075458;28;19917;-72
2022/01/12 13:56:51;;;;;;;;;;;19.90;99.90;;;;;;5075615;28;19908;-72
2022/01/12 13:59:18;;;;;;;;;;;19.90;99.90;;;;;;5075903;28;20311;-72
2022/01/12 14:01:45;;;;;;;;;;;20.00;99.90;;;;;;5075605;28;19972;-70
2022/01/12 14:04:23;;;;;;;;;;;20.00;99.90;;;;;;5075513;28;20299;-71
2022/01/12 14:06:52;;;;;;;;;;;20.00;99.90;;;;;;5075636;28;20286;-71
2022/01/12 14:09:29;;;;;;;;;;;20.10;99.90;;;;;;5075312;28;19916;-72
2022/01/12 14:11:57;;;;;;;;;;;20.10;99.90;;;;;;5075276;28;20389;-71
2022/01/12 14:14:24;;;;;;;;;;;20.10;99.90;;;;;;5075549;28;19908;-72
2022/01/12 14:16:50;;;;;;;;;;;20.00;99.90;;;;;;5075449;28;19909;-72
2022/01/12 14:19:17;;;;;;;;;;;20.00;99.90;;;;;;5075085;28;19912;-72
2022/01/12 14:22:01;;;;;;;;;;;19.90;99.90;;;;;;5075163;28;19977;-72
2022/01/12 14:24:28;;;;;;;;;;;20.00;99.90;;;;;;5075047;28;19970;-71
2022/01/12 14:26:55;;;;;;;;;;;20.00;99.90;;;;;;5075298;28;19916;-71
2022/01/12 14:29:21;;;;;;;;;;;19.90;99.90;;;;;;5075289;28;19915;-72
2022/01/12 14:31:48;;;;;;;;;;;19.90;99.90;;;;;;5074806;28;19955;-72
2022/01/12 14:34:15;;;;;;;;;;;19.90;99.90;;;;;;5075049;28;19908;-71
2022/01/12 14:36:41;;;;;;;;;;;19.90;99.90;;;;;;5074911;28;20015;-71
2022/01/12 14:39:09;;;;;;;;;;;19.90;99.90;;;;;;5074491;28;19954;-71
2022/01/12 14:41:36;;;;;;;;;;;20.00;99.90;;;;;;5074910;28;20371;-71
2022/01/12 14:44:03;;;;;;;;;;;20.00;99.90;;;;;;5074523;28;19959;-71
2022/01/12 14:46:30;;;;;;;;;;;19.90;99.90;;;;;;5074642;28;20286;-71
2022/01/12 14:48:57;;;;;;;;;;;20.00;99.90;;;;;;5074908;28;19952;-71
2022/01/12 14:51:23;;;;;;;;;;;20.10;99.90;;;;;;5074651;28;20385;-72
2022/01/12 14:53:50;;;;;;;;;;;20.10;99.90;;;;;;5074123;28;19915;-72
2022/01/12 14:56:17;;;;;;;;;;;20.00;99.90;;;;;;5074585;28;19982;-72
2022/01/12 14:58:45;;;;;;;;;;;20.00;99.90;;;;;;5107017;28;20053;-72
2022/01/12 15:01:12;;;;;;;;;;;20.00;99.90;;;;;;5074437;28;19915;-72
2022/01/12 15:03:39;;;;;;;;;;;19.90;99.90;;;;;;5074446;28;19953;-72
2022/01/12 15:06:05;;;;;;;;;;;19.90;99.90;;;;;;5106612;28;19921;-71
2022/01/12 15:08:34;;;;;;;;;;;19.90;99.90;;;;;;5074439;28;19908;-72
2022/01/12 15:11:01;;;;;;;;;;;19.90;99.90;;;;;;5074124;28;19921;-72
2022/01/12 15:13:40;;;;;;;;;;;19.80;99.90;;;;;;5106711;28;19944;-72
2022/01/12 15:16:06;;;;;;;;;;;19.80;99.90;;;;;;5074023;28;19912;-72
2022/01/12 15:18:33;;;;;;;;;;;19.80;99.90;;;;;;5074314;28;19915;-72
2022/01/12 15:21:00;;;;;;;;;;;19.70;99.90;;;;;;5074145;28;19915;-74
2022/01/12 15:23:27;;;;;;;;;;;19.70;99.90;;;;;;5073803;28;20451;-73
2022/01/12 15:25:55;;;;;;;;;;;19.70;99.90;;;;;;5073790;28;19950;-74
2022/01/12 15:28:22;;;;;;;;;;;19.60;99.90;;;;;;5073889;28;20355;-74
2022/01/12 15:30:49;;;;;;;;;;;19.70;99.90;;;;;;5073896;28;19908;-74
2022/01/12 15:33:16;;;;;;;;;;;19.70;99.90;;;;;;5073964;28;19931;-74
2022/01/12 15:35:42;;;;;;;;;;;19.70;99.90;;;;;;5073832;28;20339;-73
2022/01/12 15:38:10;;;;;;;;;;;19.70;99.90;;;;;;5073544;28;19931;-74
2022/01/12 15:40:37;;;;;;;;;;;19.70;99.90;;;;;;5073836;28;19912;-73
2022/01/12 15:43:04;;;;;;;;;;;19.70;99.90;;;;;;5073646;28;19916;-74